Time;durP1;ratioP1;P1;durP2;ratioP2;P2;SDS_P1;SDS_P2;PMS_P1;PMS_P2;Temp;Humidity;BMP_temperature;BMP_pressure;BME280_temperature;BME280_humidity;BME280_pressure;Samples;Min_cycle;Max_cycle;Signal;HPM_P1;HPM_P2
2022/07/02 00:00:56;;;;;;;8.38;2.25;;;;;;;29.05;48.56;100536.22;4990699;28;20221;-70
2022/07/02 00:03:28;;;;;;;7.50;2.05;;;;;;;29.05;48.36;100548.84;4990173;28;20109;-71
2022/07/02 00:05:59;;;;;;;5.72;1.60;;;;;;;29.05;48.55;100544.28;4989334;28;20230;-71
2022/07/02 00:08:25;;;;;;;10.60;1.70;;;;;;;29.06;48.54;100545.09;4990208;28;20066;-70
2022/07/02 00:10:53;;;;;;;9.40;2.15;;;;;;;29.06;48.21;100547.78;4990125;28;20513;-70
2022/07/02 00:13:19;;;;;;;6.30;1.40;;;;;;;29.06;48.15;100545.09;4989131;28;20383;-70
2022/07/02 00:15:45;;;;;;;12.82;2.13;;;;;;;29.06;47.84;100553.13;4990322;28;20030;-70
2022/07/02 00:18:12;;;;;;;9.10;1.83;;;;;;;29.06;47.69;100561.19;4989973;28;20394;-71
2022/07/02 00:20:38;;;;;;;7.50;1.50;;;;;;;29.05;47.39;100564.94;4990258;28;20027;-70
2022/07/02 00:23:04;;;;;;;7.03;1.60;;;;;;;29.04;47.46;100552.59;4988765;28;20041;-70
2022/07/02 00:25:37;;;;;;;10.07;1.80;;;;;;;29.03;47.05;100559.03;4979075;28;20030;-71
2022/07/02 00:28:05;;;;;;;10.10;1.85;;;;;;;28.98;47.11;100559.81;4988952;28;20365;-70
2022/07/02 00:30:32;;;;;;;5.90;1.73;;;;;;;28.98;47.06;100564.38;4990076;28;20390;-70
2022/07/02 00:32:59;;;;;;;5.30;1.50;;;;;;;28.97;47.33;100558.19;4988753;28;20042;-70
2022/07/02 00:35:25;;;;;;;12.65;2.20;;;;;;;28.96;46.95;100556.59;4986249;28;20034;-71
2022/07/02 00:37:52;;;;;;;8.25;1.90;;;;;;;28.96;46.87;100558.47;4987276;28;20041;-70
2022/07/02 00:40:18;;;;;;;7.68;1.73;;;;;;;28.93;46.91;100556.31;4989992;28;20360;-70
2022/07/02 00:42:45;;;;;;;7.97;1.30;;;;;;;28.93;46.84;100550.94;4988567;28;20022;-70
2022/07/02 00:45:10;;;;;;;6.25;1.63;;;;;;;28.94;47.01;100552.56;4986850;28;20587;-71
2022/07/02 00:47:37;;;;;;;5.78;1.50;;;;;;;28.95;46.52;100546.94;4989428;28;20114;-70
2022/07/02 00:50:06;;;;;;;6.38;1.42;;;;;;;28.96;46.50;100553.09;4989928;28;20360;-71
2022/07/02 00:52:31;;;;;;;6.45;1.70;;;;;;;28.97;46.43;100555.53;4989932;28;20030;-70
2022/07/02 00:54:57;;;;;;;8.82;1.25;;;;;;;28.97;46.92;100558.19;4988053;28;20105;-70
2022/07/02 00:57:22;;;;;;;6.00;1.27;;;;;;;28.98;46.29;100557.13;4989527;28;20027;-70
2022/07/02 00:59:48;;;;;;;9.90;1.98;;;;;;;28.99;46.39;100555.25;4989616;28;20042;-70
2022/07/02 01:02:15;;;;;;;5.53;1.42;;;;;;;28.98;46.51;100559.81;4989596;28;20462;-70
2022/07/02 01:04:41;;;;;;;7.13;1.60;;;;;;;28.99;46.83;100560.63;4989048;28;20062;-70
2022/07/02 01:07:10;;;;;;;9.73;1.83;;;;;;;28.99;46.37;100563.31;4988016;28;20109;-70
2022/07/02 01:12:26;;;;;;;7.25;1.40;;;;;;;28.95;47.01;100559.53;4989682;28;20407;-71
2022/07/02 01:14:54;;;;;;;6.53;1.48;;;;;;;28.94;46.97;100558.72;4987268;28;20026;-71
2022/07/02 01:17:20;;;;;;;9.30;1.88;;;;;;;28.92;46.70;100560.06;4988756;28;20030;-71
2022/07/02 01:19:45;;;;;;;6.45;1.67;;;;;;;28.93;46.92;100561.66;4989670;28;20034;-71
2022/07/02 01:22:22;;;;;;;13.27;2.22;;;;;;;28.93;46.60;100561.66;4989114;28;20380;-71
2022/07/02 01:24:51;;;;;;;9.30;1.50;;;;;;;28.88;46.93;100565.13;4988004;28;20034;-71
2022/07/02 01:27:18;;;;;;;7.90;1.70;;;;;;;28.86;46.56;100561.09;4988977;28;20031;-70
2022/07/02 01:29:44;;;;;;;8.60;1.98;;;;;;;28.84;46.44;100572.09;4988561;28;20471;-71
2022/07/02 01:32:10;;;;;;;6.45;2.15;;;;;;;28.83;46.93;100569.69;4988902;28;20122;-71
2022/07/02 01:34:48;;;;;;;9.23;1.70;;;;;;;28.81;46.70;100569.94;4986891;28;20035;-71
2022/07/02 01:37:17;;;;;;;7.43;1.60;;;;;;;28.81;47.03;100561.09;4969794;28;20027;-70
2022/07/02 01:39:44;;;;;;;8.63;1.30;;;;;;;28.82;46.98;100570.78;4969684;28;20046;-70
2022/07/02 01:42:10;;;;;;;8.40;1.40;;;;;;;28.82;47.09;100568.09;4969959;28;20023;-70
2022/07/02 01:44:37;;;;;;;9.52;1.98;;;;;;;28.83;47.05;100570.47;4976471;28;20039;-70
2022/07/02 01:47:05;;;;;;;10.77;1.85;;;;;;;28.84;46.53;100571.28;4989253;28;20608;-70
2022/07/02 01:49:31;;;;;;;3.92;1.23;;;;;;;28.83;47.02;100567.03;4987531;28;20466;-70
2022/07/02 01:51:56;;;;;;;8.98;2.28;;;;;;;28.84;46.98;100573.97;4989374;28;20034;-70
2022/07/02 01:54:22;;;;;;;9.25;1.15;;;;;;;28.85;47.19;100564.84;4987691;28;20093;-70
2022/07/02 01:56:47;;;;;;;6.57;1.35;;;;;;;28.86;46.76;100566.47;4987536;28;20034;-70
2022/07/02 01:59:13;;;;;;;4.57;1.00;;;;;;;28.86;46.79;100571.84;4988077;28;20034;-70
2022/07/02 02:01:40;;;;;;;4.78;1.02;;;;;;;28.88;47.15;100573.19;4988619;28;20058;-70
2022/07/02 02:04:06;;;;;;;5.97;1.35;;;;;;;28.88;46.87;100567.81;4988646;28;20397;-70
2022/07/02 02:06:31;;;;;;;9.32;1.60;;;;;;;28.89;46.52;100566.75;4987382;28;20042;-70
2022/07/02 02:08:57;;;;;;;5.22;1.20;;;;;;;28.90;47.00;100556.84;4991635;28;20085;-70
2022/07/02 02:11:23;;;;;;;8.18;1.27;;;;;;;28.91;47.00;100558.44;4992404;28;20086;-70
2022/07/02 02:13:48;;;;;;;12.10;1.92;;;;;;;28.91;46.85;100579.91;4992424;28;20308;-70
2022/07/02 02:16:13;;;;;;;6.25;0.95;;;;;;;28.91;46.54;100572.66;4991214;28;20039;-70
2022/07/02 02:18:39;;;;;;;5.95;1.08;;;;;;;28.90;46.81;100575.59;4992863;28;20077;-70
2022/07/02 02:21:04;;;;;;;7.25;1.33;;;;;;;28.89;47.00;100576.66;4993099;28;20033;-70
2022/07/02 02:23:30;;;;;;;6.40;1.10;;;;;;;28.89;46.80;100577.47;4992801;28;20026;-70
2022/07/02 02:25:55;;;;;;;7.03;1.23;;;;;;;28.87;46.43;100582.28;4991346;28;20046;-70
2022/07/02 02:28:22;;;;;;;4.70;1.20;;;;;;;28.88;46.81;100588.47;4992003;28;20064;-70
2022/07/02 02:30:48;;;;;;;5.30;1.02;;;;;;;28.87;46.41;100584.16;4991289;28;20031;-70
2022/07/02 02:33:13;;;;;;;4.30;1.40;;;;;;;28.86;46.84;100587.91;4992526;28;20037;-70
2022/07/02 02:35:39;;;;;;;7.55;1.13;;;;;;;28.86;46.43;100587.91;4990653;28;20069;-70
2022/07/02 02:38:04;;;;;;;8.20;1.30;;;;;;;28.85;46.86;100587.13;4990870;28;20034;-70
2022/07/02 02:43:05;;;;;;;6.88;1.33;;;;;;;28.85;46.42;100594.34;4984475;23;20058;-70
2022/07/02 02:45:30;;;;;;;4.55;0.98;;;;;;;28.83;46.59;100591.94;4992051;28;20097;-70
2022/07/02 02:47:55;;;;;;;5.57;1.35;;;;;;;28.83;46.68;100599.19;4991788;28;20422;-70
2022/07/02 02:50:21;;;;;;;7.32;1.00;;;;;;;28.82;46.91;100603.75;4991856;28;20471;-70
2022/07/02 02:52:46;;;;;;;5.80;1.13;;;;;;;28.82;46.65;100603.75;4991793;28;20093;-70
2022/07/02 02:55:12;;;;;;;3.40;0.98;;;;;;;28.82;46.66;100602.94;4991792;28;20478;-70
2022/07/02 02:57:37;;;;;;;5.53;1.05;;;;;;;28.83;46.71;100601.88;4991685;28;20026;-71
2022/07/02 03:00:03;;;;;;;4.82;1.20;;;;;;;28.84;46.80;100606.16;4991814;28;20034;-70
2022/07/02 03:02:29;;;;;;;6.10;1.20;;;;;;;28.84;46.61;100609.63;4991727;28;20081;-70
2022/07/02 03:04:54;;;;;;;3.13;1.25;;;;;;;28.85;46.62;100600.53;4991539;28;20030;-70
2022/07/02 03:07:20;;;;;;;4.55;1.20;;;;;;;28.87;47.04;100616.34;4991705;28;20058;-70
2022/07/02 03:09:45;;;;;;;5.07;1.00;;;;;;;28.87;47.05;100619.03;4991234;28;20030;-70
2022/07/02 03:12:11;;;;;;;4.72;1.27;;;;;;;28.86;46.67;100618.22;4991300;28;20027;-70
2022/07/02 03:14:37;;;;;;;8.77;1.27;;;;;;;28.87;46.54;100616.34;4991454;28;20030;-70
2022/07/02 03:17:04;;;;;;;5.28;1.08;;;;;;;28.87;47.00;100617.16;4991306;28;20205;-70
2022/07/02 03:19:29;;;;;;;4.47;0.88;;;;;;;28.88;46.53;100617.97;4990787;28;20037;-70
2022/07/02 03:21:54;;;;;;;6.38;1.23;;;;;;;28.88;46.48;100613.41;4991351;28;20037;-70
2022/07/02 03:24:20;;;;;;;3.63;1.55;;;;;;;28.88;46.91;100620.66;4991243;28;20117;-70
2022/07/02 03:26:45;;;;;;;4.22;1.10;;;;;;;28.86;46.69;100622.78;4990993;28;20030;-70
2022/07/02 03:29:10;;;;;;;7.28;1.55;;;;;;;28.85;46.59;100618.47;4990935;28;20026;-70
2022/07/02 03:31:36;;;;;;;2.95;0.95;;;;;;;28.85;46.48;100623.84;4991256;28;20030;-70
2022/07/02 03:34:01;;;;;;;7.57;1.42;;;;;;;28.83;46.72;100626.00;4991162;28;20033;-70
2022/07/02 03:36:27;;;;;;;6.25;1.02;;;;;;;28.82;46.80;100630.56;4991244;28;20113;-70
2022/07/02 03:38:52;;;;;;;5.85;1.15;;;;;;;28.82;46.26;100627.06;4990924;28;20505;-70
2022/07/02 03:41:18;;;;;;;7.38;1.02;;;;;;;28.82;46.77;100627.06;4989478;28;20022;-71
2022/07/02 03:43:43;;;;;;;6.25;0.90;;;;;;;28.81;46.66;100630.78;4971791;28;20046;-70
2022/07/02 03:46:09;;;;;;;4.97;1.48;;;;;;;28.81;46.30;100633.47;4971610;28;20034;-70
2022/07/02 03:48:34;;;;;;;3.70;1.00;;;;;;;28.79;46.90;100632.94;4971144;28;20031;-70
2022/07/02 03:51:00;;;;;;;5.35;0.88;;;;;;;28.79;46.70;100638.28;4971431;28;20023;-70
2022/07/02 03:53:25;;;;;;;7.18;1.25;;;;;;;28.78;46.70;100637.50;4971000;28;20113;-70
2022/07/02 03:55:51;;;;;;;5.95;1.42;;;;;;;28.79;46.45;100646.34;4971357;28;20031;-70
2022/07/02 03:58:16;;;;;;;5.68;1.23;;;;;;;28.79;46.49;100646.34;4970944;28;20390;-70
2022/07/02 04:00:42;;;;;;;9.65;1.73;;;;;;;28.79;46.37;100646.34;4971607;28;20026;-70
2022/07/02 04:03:07;;;;;;;3.60;1.00;;;;;;;28.81;46.83;100654.94;4970934;28;20034;-70
2022/07/02 04:05:33;;;;;;;4.97;1.00;;;;;;;28.79;46.72;100652.50;4970918;28;20035;-70
2022/07/02 04:07:58;;;;;;;6.47;1.85;;;;;;;28.81;46.73;100660.28;4971288;28;20030;-69
2022/07/02 04:10:24;;;;;;;7.07;1.35;;;;;;;28.82;46.37;100662.75;4970844;28;20031;-70
2022/07/02 04:12:49;;;;;;;5.53;1.30;;;;;;;28.83;46.37;100658.19;4970821;28;20041;-70
2022/07/02 04:15:15;;;;;;;5.65;0.80;;;;;;;28.84;46.59;100662.44;4970888;28;20054;-70
2022/07/02 04:17:40;;;;;;;4.50;1.25;;;;;;;28.86;46.52;100676.41;4970942;28;20027;-70
2022/07/02 04:20:06;;;;;;;5.07;1.15;;;;;;;28.85;46.09;100672.13;4970530;28;20073;-70
2022/07/02 04:22:32;;;;;;;4.40;1.30;;;;;;;28.85;46.36;100686.31;4970526;28;20030;-70
2022/07/02 04:24:57;;;;;;;5.55;1.35;;;;;;;28.85;46.05;100683.66;4970330;28;20073;-70
2022/07/02 04:27:22;;;;;;;6.25;1.30;;;;;;;28.87;46.53;100691.44;4970784;28;20031;-70
2022/07/02 04:29:48;;;;;;;5.10;1.20;;;;;;;28.86;46.51;100698.66;4969932;28;20461;-70
2022/07/02 04:32:14;;;;;;;4.70;0.98;;;;;;;28.86;46.44;100695.19;4970227;28;20034;-70
2022/07/02 04:34:40;;;;;;;2.97;1.00;;;;;;;28.84;46.29;100687.41;4970504;28;20023;-70
2022/07/02 04:37:05;;;;;;;3.60;0.90;;;;;;;28.86;46.23;100697.84;4970430;28;20026;-70
2022/07/02 04:39:31;;;;;;;3.25;0.90;;;;;;;28.84;46.34;100695.44;4970316;28;20027;-70
2022/07/02 04:41:57;;;;;;;3.53;0.80;;;;;;;28.84;46.28;100697.31;4970042;28;20051;-69
2022/07/02 04:44:24;;;;;;;5.28;0.95;;;;;;;28.83;45.97;100695.72;4970150;28;20034;-69
2022/07/02 04:46:49;;;;;;;5.72;1.10;;;;;;;28.84;45.91;100703.47;4970334;28;20043;-69
2022/07/02 04:49:15;;;;;;;4.55;1.05;;;;;;;28.84;46.26;100702.66;4970342;28;20030;-70
2022/07/02 04:51:40;;;;;;;3.95;0.77;;;;;;;28.84;45.94;100708.03;4970291;28;20086;-69
2022/07/02 04:54:05;;;;;;;3.58;1.40;;;;;;;28.85;46.03;100709.66;4970101;28;20114;-69
2022/07/02 04:56:31;;;;;;;4.22;1.00;;;;;;;28.85;46.09;100709.66;4969810;28;20029;-70
2022/07/02 04:58:56;;;;;;;2.30;0.60;;;;;;;28.85;46.32;100712.34;4970100;28;20435;-70
2022/07/02 05:01:23;;;;;;;5.78;1.00;;;;;;;28.86;45.96;100704.03;4969919;28;20035;-69
2022/07/02 05:03:50;;;;;;;7.10;1.00;;;;;;;28.87;46.44;100707.53;4970191;28;20031;-70
2022/07/02 05:06:16;;;;;;;5.30;1.35;;;;;;;28.88;46.14;100706.44;4969958;28;20440;-69
2022/07/02 05:08:42;;;;;;;4.00;1.15;;;;;;;28.88;46.29;100709.13;4969810;28;20130;-71
2022/07/02 05:11:07;;;;;;;3.80;0.93;;;;;;;28.88;46.06;100709.94;4969749;28;20114;-70
2022/07/02 05:13:33;;;;;;;4.32;0.80;;;;;;;28.90;46.17;100718.53;4970548;28;20138;-70
2022/07/02 05:15:58;;;;;;;4.88;1.40;;;;;;;28.92;46.39;100715.59;5000592;28;20050;-70
2022/07/02 05:18:24;;;;;;;5.07;1.35;;;;;;;28.93;46.22;100712.66;4989221;28;20054;-70
2022/07/02 05:20:49;;;;;;;5.07;0.88;;;;;;;28.92;46.07;100718.28;5008671;28;20490;-70
2022/07/02 05:23:15;;;;;;;3.20;0.80;;;;;;;28.93;45.96;100718.03;5008657;28;20682;-70
2022/07/02 05:25:41;;;;;;;3.15;0.52;;;;;;;28.94;45.61;100726.88;4992198;28;20038;-70
2022/07/02 05:28:06;;;;;;;7.57;0.80;;;;;;;28.93;45.65;100735.97;4989216;28;20478;-69
2022/07/02 05:30:32;;;;;;;2.13;0.52;;;;;;;28.92;45.38;100729.00;4988634;28;20182;-71
2022/07/02 05:32:57;;;;;;;1.92;0.40;;;;;;;28.92;45.61;100729.00;4988477;28;20042;-70
2022/07/02 05:35:23;;;;;;;3.80;0.70;;;;;;;28.95;45.19;100725.81;4988932;28;20034;-70
2022/07/02 05:37:48;;;;;;;4.47;0.82;;;;;;;28.94;45.27;100724.19;4988785;28;20397;-70
2022/07/02 05:40:13;;;;;;;6.45;0.77;;;;;;;28.92;45.44;100732.50;4988820;28;20031;-70
2022/07/02 05:42:39;;;;;;;4.70;0.73;;;;;;;28.90;45.44;100731.94;5002303;28;20053;-68
2022/07/02 05:45:05;;;;;;;3.60;0.70;;;;;;;28.90;45.85;100740.00;5012537;28;20033;-70
2022/07/02 05:47:30;;;;;;;4.18;0.60;;;;;;;28.92;45.80;100737.84;5011952;28;20080;-70
2022/07/02 05:49:56;;;;;;;6.30;0.82;;;;;;;28.94;45.70;100743.78;5011436;28;20121;-70
2022/07/02 05:52:21;;;;;;;3.90;0.90;;;;;;;28.93;45.59;100736.78;5012725;28;20446;-71
2022/07/02 05:54:47;;;;;;;4.30;0.70;;;;;;;28.95;45.15;100744.56;5012632;28;20358;-70
2022/07/02 05:57:12;;;;;;;4.65;0.60;;;;;;;28.96;45.35;100747.00;5011494;28;20876;-69
2022/07/02 05:59:38;;;;;;;3.17;0.85;;;;;;;28.97;45.32;100745.13;5012302;28;20030;-70
2022/07/02 06:02:04;;;;;;;7.07;1.13;;;;;;;28.98;45.35;100747.56;5010580;28;20029;-70
2022/07/02 06:04:31;;;;;;;4.10;0.90;;;;;;;28.97;44.52;100742.44;5012518;28;20549;-70
2022/07/02 06:09:41;;;;;;;7.70;0.57;;;;;;;28.94;43.99;100742.97;5012158;28;20143;-70
2022/07/02 06:12:07;;;;;;;5.68;0.57;;;;;;;28.94;43.33;100754.50;5011291;28;20633;-70
2022/07/02 06:14:33;;;;;;;4.53;0.32;;;;;;;28.90;41.86;100747.22;5012006;28;20030;-69
2022/07/02 06:16:59;;;;;;;3.25;0.30;;;;;;;28.88;41.80;100750.16;5011161;28;20037;-70
2022/07/02 06:19:24;;;;;;;3.55;0.45;;;;;;;28.88;40.91;100757.41;5031152;28;20453;-71
2022/07/02 06:21:50;;;;;;;1.48;0.52;;;;;;;28.84;40.31;100750.94;5030793;28;20022;-69
2022/07/02 06:24:15;;;;;;;2.55;0.22;;;;;;;28.80;40.27;100756.00;5014285;28;20375;-69
2022/07/02 06:26:40;;;;;;;3.35;0.50;;;;;;;28.79;40.56;100759.75;5011638;28;20115;-69
2022/07/02 06:29:06;;;;;;;2.55;0.50;;;;;;;28.80;40.49;100760.56;5011483;28;20034;-70
2022/07/02 06:31:31;;;;;;;2.20;0.30;;;;;;;28.79;39.66;100759.75;5010764;28;20112;-70
2022/07/02 06:33:57;;;;;;;4.88;0.30;;;;;;;28.77;39.83;100763.75;5011650;28;20042;-70
2022/07/02 06:36:24;;;;;;;1.42;0.30;;;;;;;28.76;39.90;100756.78;5012049;28;20102;-69
2022/07/02 06:38:50;;;;;;;5.32;0.40;;;;;;;28.73;39.38;100761.59;5011477;28;20036;-70
2022/07/02 06:42:18;;;;;;;6.63;0.50;;;;;;;28.71;39.41;100769.09;5015535;28;20037;-71
2022/07/02 06:44:01;;;;;;;3.47;0.22;;;;;;;28.69;39.41;100776.56;5010773;28;20033;-71
2022/07/02 06:46:26;;;;;;;3.72;0.20;;;;;;;28.66;39.18;100771.72;5010479;28;20026;-71
2022/07/02 06:48:52;;;;;;;2.58;0.30;;;;;;;28.67;39.85;100772.53;5011668;28;20026;-71
2022/07/02 06:51:17;;;;;;;3.80;0.50;;;;;;;28.73;40.04;100772.31;5010896;28;20026;-70
2022/07/02 06:53:43;;;;;;;6.03;0.40;;;;;;;28.86;40.43;100778.31;5011178;28;20028;-71
2022/07/02 06:56:08;;;;;;;1.52;0.20;;;;;;;28.88;40.16;100785.03;5011660;28;20073;-71
2022/07/02 06:58:33;;;;;;;2.58;0.30;;;;;;;28.87;40.21;100779.91;5009599;28;20366;-71
2022/07/02 07:00:59;;;;;;;2.70;0.35;;;;;;;28.82;39.82;100779.91;5010801;28;20033;-71
2022/07/02 07:03:24;;;;;;;4.30;0.30;;;;;;;28.77;41.51;100788.69;5016200;28;20030;-70
2022/07/02 07:05:50;;;;;;;3.70;0.85;;;;;;;28.79;42.10;100796.47;5010906;28;20030;-70
2022/07/02 07:08:15;;;;;;;5.72;0.60;;;;;;;28.79;41.79;100793.81;5009684;28;20122;-70
2022/07/02 07:10:41;;;;;;;1.60;0.30;;;;;;;28.79;41.69;100796.47;5011039;28;20061;-70
2022/07/02 07:13:06;;;;;;;2.55;0.22;;;;;;;28.81;41.62;100795.16;5010810;28;20088;-69
2022/07/02 07:15:32;;;;;;;5.70;0.32;;;;;;;28.80;41.68;100800.78;4995968;28;20437;-70
2022/07/02 07:17:57;;;;;;;4.38;0.30;;;;;;;28.79;41.82;100793.81;5019707;28;20033;-70
2022/07/02 07:20:27;;;;;;;4.65;0.60;;;;;;;28.79;41.74;100791.13;5010869;28;20466;-70
2022/07/02 07:22:53;;;;;;;0.98;0.20;;;;;;;28.79;41.51;100797.28;5010741;28;20033;-70
2022/07/02 07:25:19;;;;;;;2.55;0.30;;;;;;;28.82;41.53;100790.63;5029193;28;20471;-70
2022/07/02 07:27:45;;;;;;;2.75;0.30;;;;;;;28.81;41.59;100797.84;5008334;28;20114;-69
2022/07/02 07:30:11;;;;;;;1.58;0.30;;;;;;;28.82;41.83;100796.81;5030180;28;20108;-70
2022/07/02 07:32:37;;;;;;;2.97;0.30;;;;;;;28.82;41.65;100802.19;4991024;28;20425;-71
2022/07/02 07:35:03;;;;;;;2.50;0.30;;;;;;;28.80;41.48;100806.94;5004783;28;20091;-69
2022/07/02 07:37:28;;;;;;;5.25;0.38;;;;;;;28.80;41.26;100804.28;5010112;28;20545;-70
2022/07/02 07:39:54;;;;;;;1.38;0.40;;;;;;;28.79;40.93;100802.66;5010683;28;20040;-70
2022/07/02 07:42:19;;;;;;;1.17;0.30;;;;;;;28.78;40.52;100805.59;5009217;28;20140;-69
2022/07/02 07:44:44;;;;;;;1.20;0.40;;;;;;;28.72;40.33;100804.75;5010431;28;20033;-69
2022/07/02 07:47:10;;;;;;;6.28;0.45;;;;;;;28.71;40.72;100816.53;5009148;28;20040;-69
2022/07/02 07:49:35;;;;;;;3.25;0.30;;;;;;;28.70;40.22;100810.34;5008911;28;20034;-69
2022/07/02 07:52:01;;;;;;;1.17;0.22;;;;;;;28.71;40.55;100817.34;5007658;28;20038;-70
2022/07/02 07:54:26;;;;;;;2.45;0.30;;;;;;;28.71;40.51;100828.06;5003651;28;20433;-69
2022/07/02 07:56:52;;;;;;;2.35;0.55;;;;;;;28.73;40.38;100812.53;5010155;28;20487;-70
2022/07/02 07:59:17;;;;;;;2.05;0.50;;;;;;;28.73;40.58;100820.56;5013595;28;20073;-70
2022/07/02 08:01:43;;;;;;;0.80;0.30;;;;;;;28.74;40.56;100819.50;5006605;28;20112;-70
2022/07/02 08:04:08;;;;;;;3.60;0.43;;;;;;;28.76;40.71;100829.97;5006762;28;20076;-69
2022/07/02 08:06:33;;;;;;;1.75;0.40;;;;;;;28.79;40.54;100829.47;5006102;28;20034;-70
2022/07/02 08:08:59;;;;;;;2.08;0.30;;;;;;;28.80;40.39;100831.09;5002806;28;20121;-70
2022/07/02 08:11:26;;;;;;;2.13;0.60;;;;;;;28.79;40.37;100818.75;5004593;23;20054;-70
2022/07/02 08:13:51;;;;;;;1.92;0.30;;;;;;;28.80;40.46;100831.09;5004933;28;20026;-70
2022/07/02 08:16:17;;;;;;;2.15;0.40;;;;;;;28.81;41.08;100829.22;5008808;28;20399;-70
2022/07/02 08:18:42;;;;;;;5.13;0.43;;;;;;;28.81;41.01;100829.22;5009544;28;20029;-70
2022/07/02 08:21:08;;;;;;;1.40;0.30;;;;;;;28.79;41.09;100829.47;5009763;28;20106;-69
2022/07/02 08:23:33;;;;;;;0.80;0.30;;;;;;;28.81;41.02;100821.16;5009651;28;20561;-70
2022/07/02 08:25:59;;;;;;;1.95;0.30;;;;;;;28.82;41.08;100838.91;5009628;28;20442;-69
2022/07/02 08:28:24;;;;;;;1.08;0.20;;;;;;;28.82;41.02;100828.19;5007454;28;20100;-71
2022/07/02 08:30:51;;;;;;;2.35;0.20;;;;;;;28.81;40.99;100826.53;5007430;28;20034;-70
2022/07/02 08:33:16;;;;;;;2.72;0.43;;;;;;;28.81;40.85;100831.91;5009619;28;20022;-70
2022/07/02 08:35:43;;;;;;;2.88;0.60;;;;;;;28.81;40.34;100834.56;5009586;28;20402;-69
2022/07/02 08:38:08;;;;;;;3.63;0.40;;;;;;;28.81;40.71;100829.22;5008016;28;20034;-69
2022/07/02 08:40:34;;;;;;;2.60;0.50;;;;;;;28.80;40.37;100820.34;5009496;28;20045;-70
2022/07/02 08:43:00;;;;;;;3.10;0.60;;;;;;;28.81;40.33;100815.81;5009215;28;20030;-70
2022/07/02 08:45:30;;;;;;;3.25;0.50;;;;;;;28.82;40.26;100829.00;5008054;28;20025;-69
2022/07/02 08:47:57;;;;;;;2.60;0.30;;;;;;;28.83;40.46;100835.16;5009033;28;20029;-70
2022/07/02 08:50:23;;;;;;;2.25;0.43;;;;;;;28.84;40.73;100829.50;5009073;28;20064;-70
2022/07/02 08:52:51;;;;;;;2.30;0.50;;;;;;;28.86;40.66;100834.63;5008963;28;20029;-69
2022/07/02 08:55:18;;;;;;;4.55;0.30;;;;;;;28.87;40.02;100828.19;5009006;28;20482;-70
2022/07/02 08:57:45;;;;;;;4.45;0.32;;;;;;;28.88;40.40;100832.50;4990144;28;20528;-70
2022/07/02 09:00:11;;;;;;;1.63;0.40;;;;;;;28.89;40.29;100818.00;5007885;28;20121;-69
2022/07/02 09:02:37;;;;;;;2.00;0.40;;;;;;;28.91;40.46;100826.63;5009158;28;20105;-70
2022/07/02 09:05:04;;;;;;;5.32;0.57;;;;;;;28.91;40.62;100842.69;5008595;28;20033;-70
2022/07/02 09:07:30;;;;;;;5.20;0.40;;;;;;;28.91;40.01;100829.28;5008318;28;20416;-69
2022/07/02 09:09:57;;;;;;;1.73;0.30;;;;;;;28.91;40.13;100835.47;5008739;28;20037;-69
2022/07/02 09:12:24;;;;;;;2.97;0.40;;;;;;;28.92;40.14;100834.41;5008544;28;20054;-70
2022/07/02 09:14:50;;;;;;;3.45;0.40;;;;;;;28.93;40.22;100837.91;5007541;28;20050;-69
2022/07/02 09:17:15;;;;;;;7.03;0.57;;;;;;;28.93;40.14;100830.66;5008420;28;20069;-70
2022/07/02 09:19:41;;;;;;;2.13;0.40;;;;;;;28.95;40.29;100838.44;5008665;28;20030;-69
2022/07/02 09:22:08;;;;;;;3.83;0.50;;;;;;;28.95;40.27;100844.63;5008637;28;20037;-69
2022/07/02 09:24:39;;;;;;;4.22;0.40;;;;;;;28.95;40.18;100838.44;5008372;28;20028;-69
2022/07/02 09:27:11;;;;;;;1.60;0.47;;;;;;;28.95;40.44;100839.25;5005898;28;20037;-70
2022/07/02 09:29:52;;;;;;;0.93;0.65;;;;;;;28.93;40.19;100846.75;5008372;28;20407;-70
2022/07/02 09:32:19;;;;;;;1.83;0.20;;;;;;;28.94;40.06;100839.50;4988696;28;20508;-69
2022/07/02 09:34:46;;;;;;;1.85;0.32;;;;;;;28.94;40.24;100836.84;4989309;28;20388;-69
2022/07/02 09:37:23;;;;;;;1.50;0.40;;;;;;;28.92;40.39;100839.75;5000992;28;20092;-70
2022/07/02 09:39:50;;;;;;;2.25;0.30;;;;;;;28.93;39.98;100845.94;5007926;28;20517;-69
2022/07/02 09:42:32;;;;;;;4.47;0.40;;;;;;;28.93;40.24;100843.25;5008682;28;20026;-69
2022/07/02 09:45:00;;;;;;;2.35;0.40;;;;;;;28.95;39.73;100844.63;5008335;28;20030;-70
2022/07/02 09:47:33;;;;;;;4.82;0.40;;;;;;;28.97;39.89;100850.53;5007680;28;20384;-69
2022/07/02 09:50:08;;;;;;;1.75;0.30;;;;;;;28.98;40.17;100838.75;5008250;28;20030;-70
2022/07/02 09:52:34;;;;;;;2.35;0.30;;;;;;;28.99;39.97;100847.59;5008471;28;20482;-69
2022/07/02 09:55:00;;;;;;;4.22;0.43;;;;;;;29.01;39.79;100840.09;5008200;28;20061;-70
2022/07/02 09:57:26;;;;;;;2.80;0.30;;;;;;;29.03;39.79;100837.97;5007167;28;20089;-69
2022/07/02 09:59:53;;;;;;;2.78;0.30;;;;;;;29.06;39.57;100840.13;5008272;28;20546;-70
2022/07/02 10:02:25;;;;;;;3.95;0.50;;;;;;;29.07;39.99;100836.41;5006678;28;20077;-69
2022/07/02 10:04:53;;;;;;;1.33;0.40;;;;;;;29.10;39.50;100841.25;5008430;28;20054;-70
2022/07/02 10:07:21;;;;;;;3.03;0.40;;;;;;;29.11;39.77;100826.75;5007376;28;20109;-69
2022/07/02 10:09:49;;;;;;;2.40;0.30;;;;;;;29.14;39.25;100831.63;5008130;28;20045;-70
2022/07/02 10:12:16;;;;;;;4.43;0.30;;;;;;;29.14;39.72;100831.63;5008116;28;20053;-70
2022/07/02 10:14:44;;;;;;;3.25;0.30;;;;;;;29.11;39.47;100832.13;5008211;28;20033;-68
2022/07/02 10:17:10;;;;;;;3.80;0.32;;;;;;;29.10;39.58;100835.88;5006052;28;20601;-70
2022/07/02 10:19:38;;;;;;;4.07;0.30;;;;;;;29.10;40.16;100835.88;5008233;28;20490;-70
2022/07/02 10:22:05;;;;;;;3.03;0.32;;;;;;;29.11;40.01;100832.13;5006771;28;20037;-70
2022/07/02 10:24:32;;;;;;;3.58;0.50;;;;;;;29.10;39.39;100829.72;5007996;28;20437;-70
2022/07/02 10:26:59;;;;;;;2.95;0.40;;;;;;;29.11;39.62;100821.41;5007065;28;20026;-69
2022/07/02 10:29:25;;;;;;;3.90;0.40;;;;;;;29.11;39.30;100828.63;5009885;28;20358;-70
2022/07/02 10:32:24;;;;;;;2.13;0.50;;;;;;;29.12;39.29;100820.34;5010752;28;20141;-70
2022/07/02 10:35:15;;;;;;;2.40;0.40;;;;;;;29.10;39.78;100821.66;5007539;28;20045;-69
2022/07/02 10:37:41;;;;;;;2.42;0.30;;;;;;;29.11;39.91;100832.13;5010579;28;20044;-70
2022/07/02 10:40:08;;;;;;;1.45;0.30;;;;;;;29.12;39.50;100820.34;4995323;28;20491;-70
2022/07/02 10:42:48;;;;;;;2.05;0.30;;;;;;;29.14;39.49;100812.84;4991999;28;20494;-70
2022/07/02 10:45:16;;;;;;;2.33;0.40;;;;;;;29.16;39.72;100824.13;4992146;28;20577;-69
2022/07/02 10:48:01;;;;;;;5.18;0.30;;;;;;;29.17;39.18;100808.84;5003865;28;20061;-69
2022/07/02 10:50:39;;;;;;;4.03;0.30;;;;;;;29.20;39.30;100811.81;5011640;28;20095;-69
2022/07/02 10:53:17;;;;;;;0.75;0.38;;;;;;;29.20;39.87;100803.75;5011393;28;20030;-70
2022/07/02 10:56:02;;;;;;;3.40;0.52;;;;;;;29.18;39.77;100816.63;5011246;28;20033;-70
2022/07/02 10:58:36;;;;;;;2.03;0.30;;;;;;;29.19;39.66;100820.91;5008134;28;20104;-70
2022/07/02 11:01:22;;;;;;;2.70;0.40;;;;;;;29.20;39.54;100808.31;5011019;28;20029;-69
2022/07/02 11:03:59;;;;;;;4.85;0.30;;;;;;;29.19;40.05;100818.25;5001335;28;20128;-70
2022/07/02 11:06:32;;;;;;;2.08;0.25;;;;;;;29.17;39.79;100804.28;5010984;28;20040;-69
2022/07/02 11:09:04;;;;;;;2.35;0.38;;;;;;;29.18;39.91;100815.81;5008573;28;20026;-70
2022/07/02 11:11:32;;;;;;;1.92;0.38;;;;;;;29.17;39.91;100812.31;5010484;28;20050;-69
2022/07/02 11:13:57;;;;;;;3.42;0.40;;;;;;;29.18;40.18;100815.81;5011293;28;20084;-70
2022/07/02 11:16:34;;;;;;;1.00;0.30;;;;;;;29.20;39.58;100814.50;5010845;28;20029;-70
2022/07/02 11:19:00;;;;;;;1.58;0.30;;;;;;;29.25;39.62;100806.47;5010372;28;20030;-70
2022/07/02 11:21:27;;;;;;;2.20;0.40;;;;;;;29.26;39.53;100807.28;5010740;28;20030;-70
2022/07/02 11:23:53;;;;;;;1.17;0.30;;;;;;;29.25;39.27;100814.53;5009058;28;20390;-70
2022/07/02 11:26:23;;;;;;;4.22;0.32;;;;;;;29.25;40.00;100801.09;5010504;28;20022;-70
2022/07/02 11:28:50;;;;;;;2.83;0.30;;;;;;;29.28;39.39;100805.13;5009418;28;20089;-70
2022/07/02 11:31:19;;;;;;;2.60;0.20;;;;;;;29.30;39.86;100803.00;5011006;28;20450;-70